createdAt,value
2023-04-14T00:00:36.780Z,33.13
2023-04-14T00:03:09.832Z,24.53
2023-04-14T00:05:42.770Z,23.43
2023-04-14T00:08:15.532Z,21.80
2023-04-14T00:10:49.629Z,20.63
2023-04-14T00:13:22.386Z,15.30
2023-04-14T00:16:02.526Z,17.17
2023-04-14T00:18:35.244Z,11.37
2023-04-14T00:21:11.052Z,14.80
2023-04-14T00:23:43.906Z,8.30
2023-04-14T00:26:18.096Z,9.37
2023-04-14T00:28:50.868Z,10.10
2023-04-14T00:31:23.968Z,10.57
2023-04-14T00:33:56.921Z,10.63
2023-04-14T00:36:29.703Z,12.83
2023-04-14T00:39:04.601Z,11.93
2023-04-14T00:41:38.644Z,14.40
2023-04-14T00:44:11.533Z,19.43
2023-04-14T00:46:44.696Z,17.07
2023-04-14T00:49:22.284Z,18.60
2023-04-14T00:51:56.197Z,21.03
2023-04-14T00:54:31.580Z,15.20
2023-04-14T00:57:07.354Z,17.13
2023-04-14T00:59:40.526Z,16.80
2023-04-14T01:02:13.505Z,12.37
2023-04-14T01:04:54.243Z,10.83
2023-04-14T01:07:28.181Z,12.23
2023-04-14T01:10:00.975Z,13.70
2023-04-14T01:12:41.762Z,13.83
2023-04-14T01:15:18.120Z,14.70
2023-04-14T01:17:55.572Z,12.20
2023-04-14T01:20:31.971Z,15.23
2023-04-14T01:23:08.551Z,13.33
2023-04-14T01:25:58.770Z,12.30
2023-04-14T01:28:44.291Z,12.03
2023-04-14T01:31:25.205Z,10.93
2023-04-14T01:34:00.107Z,9.97
2023-04-14T01:36:38.595Z,10.73
2023-04-14T01:39:20.244Z,8.53
2023-04-14T01:41:58.219Z,8.00
2023-04-14T01:44:31.939Z,7.10
2023-04-14T01:47:08.605Z,6.57
2023-04-14T01:49:42.347Z,8.10
2023-04-14T01:52:16.532Z,8.93
2023-04-14T01:54:51.873Z,5.77
2023-04-14T01:57:26.438Z,7.20
2023-04-14T02:00:00.479Z,6.37
2023-04-14T02:02:37.729Z,5.90
2023-04-14T02:05:10.966Z,7.43
2023-04-14T02:07:44.641Z,5.83
2023-04-14T02:10:18.650Z,4.73
2023-04-14T02:12:52.661Z,6.00
2023-04-14T02:15:26.258Z,5.43
2023-04-14T02:18:01.422Z,6.53
2023-04-14T02:20:34.755Z,7.60
2023-04-14T02:23:10.823Z,6.63
2023-04-14T02:25:52.987Z,6.00
2023-04-14T02:28:29.062Z,7.43
2023-04-14T02:31:06.674Z,8.17
2023-04-14T02:33:42.009Z,5.17
2023-04-14T02:36:17.094Z,8.90
2023-04-14T02:38:53.335Z,6.50
2023-04-14T02:41:29.142Z,10.70
2023-04-14T02:44:05.132Z,10.50
2023-04-14T02:46:40.409Z,7.80
2023-04-14T02:49:15.720Z,7.07
2023-04-14T02:51:51.354Z,6.13
2023-04-14T02:54:24.692Z,10.33
2023-04-14T02:57:01.974Z,8.40
2023-04-14T02:59:35.610Z,7.93
2023-04-14T03:02:09.315Z,9.10
2023-04-14T03:04:43.627Z,9.50
2023-04-14T03:07:17.197Z,7.50
2023-04-14T03:09:51.980Z,8.67
2023-04-14T03:12:25.379Z,9.83
2023-04-14T03:15:01.392Z,7.93
2023-04-14T03:17:34.315Z,6.63
2023-04-14T03:20:09.361Z,7.73
2023-04-14T03:22:45.302Z,6.37
2023-04-14T03:25:18.016Z,5.63
2023-04-14T03:27:59.499Z,6.60
2023-04-14T03:30:32.959Z,7.63
2023-04-14T03:33:11.152Z,4.63
2023-04-14T03:35:46.185Z,6.53
2023-04-14T03:38:19.178Z,6.60
2023-04-14T03:40:52.468Z,6.23
2023-04-14T03:43:27.985Z,6.97
2023-04-14T03:46:00.831Z,6.57
2023-04-14T03:48:35.370Z,7.00
2023-04-14T03:51:13.201Z,6.20
2023-04-14T03:53:46.778Z,7.37
2023-04-14T03:56:19.878Z,8.93
2023-04-14T03:58:56.870Z,6.07
2023-04-14T04:01:29.821Z,6.20
2023-04-14T04:04:03.329Z,10.27
2023-04-14T04:06:37.710Z,7.90
2023-04-14T04:09:12.532Z,6.83
2023-04-14T04:11:47.411Z,6.50
2023-04-14T04:14:21.166Z,7.20
2023-04-14T04:16:55.011Z,7.53
2023-04-14T04:19:27.809Z,7.67
2023-04-14T04:22:02.903Z,5.77
2023-04-14T04:24:38.790Z,6.67
2023-04-14T04:27:24.280Z,6.17
2023-04-14T04:30:00.512Z,6.23
2023-04-14T04:32:33.452Z,8.87
2023-04-14T04:35:07.736Z,6.00
2023-04-14T04:37:43.615Z,7.53
2023-04-14T04:40:16.652Z,7.03
2023-04-14T04:42:49.458Z,6.50
2023-04-14T04:45:37.593Z,8.90
2023-04-14T04:48:10.709Z,10.50
2023-04-14T04:50:43.648Z,6.60
2023-04-14T04:53:17.821Z,8.73
2023-04-14T04:55:50.645Z,8.60
2023-04-14T04:58:23.457Z,7.80
2023-04-14T05:00:56.302Z,8.00
2023-04-14T05:03:29.153Z,8.03
2023-04-14T05:06:02.120Z,7.87
2023-04-14T05:08:36.319Z,7.73
2023-04-14T05:11:09.214Z,9.23
2023-04-14T05:13:42.183Z,8.90
2023-04-14T05:16:17.532Z,7.30
2023-04-14T05:18:50.664Z,10.00
2023-04-14T05:21:23.404Z,6.90
2023-04-14T05:23:57.714Z,7.83
2023-04-14T05:26:51.759Z,7.30
2023-04-14T05:29:23.897Z,6.33
2023-04-14T05:31:56.635Z,9.60
2023-04-14T05:34:31.769Z,9.40
2023-04-14T05:37:04.502Z,9.73
2023-04-14T05:39:38.672Z,7.63
2023-04-14T05:42:12.637Z,8.20
2023-04-14T05:44:45.603Z,5.87
2023-04-14T05:47:19.431Z,7.33
2023-04-14T05:49:54.778Z,7.20
2023-04-14T05:52:31.235Z,7.03
2023-04-14T05:55:05.878Z,6.43
2023-04-14T05:57:38.783Z,9.33
2023-04-14T06:00:12.405Z,7.83
2023-04-14T06:02:45.837Z,8.03
2023-04-14T06:05:19.088Z,6.53
2023-04-14T06:07:51.899Z,6.43
2023-04-14T06:10:26.084Z,7.13
2023-04-14T06:12:58.867Z,7.33
2023-04-14T06:15:31.837Z,6.67
2023-04-14T06:18:04.944Z,6.50
2023-04-14T06:20:37.841Z,6.37
2023-04-14T06:23:10.825Z,8.13
2023-04-14T06:25:45.707Z,6.57
2023-04-14T06:28:19.812Z,6.43
2023-04-14T06:30:52.661Z,6.27
2023-04-14T06:33:26.344Z,6.37
2023-04-14T06:35:59.430Z,6.90
2023-04-14T06:38:32.317Z,8.47
2023-04-14T06:41:09.072Z,7.33
2023-04-14T06:43:42.877Z,7.77
2023-04-14T06:46:16.215Z,7.70
2023-04-14T06:48:49.172Z,7.63
2023-04-14T06:51:22.159Z,9.83
2023-04-14T06:53:55.018Z,8.87
2023-04-14T06:56:29.049Z,9.50
2023-04-14T06:59:01.984Z,10.10
2023-04-14T07:01:34.845Z,8.93
2023-04-14T07:04:08.389Z,7.43
2023-04-14T07:06:44.009Z,13.70
2023-04-14T07:09:17.076Z,13.17
2023-04-14T07:11:53.115Z,11.33
2023-04-14T07:14:26.094Z,16.17
2023-04-14T07:16:58.977Z,10.17
2023-04-14T07:19:32.496Z,9.13
2023-04-14T07:22:07.509Z,7.87
2023-04-14T07:24:40.443Z,10.60
2023-04-14T07:27:15.707Z,8.73
2023-04-14T07:29:49.973Z,9.80
2023-04-14T07:32:22.803Z,10.47
2023-04-14T07:34:57.698Z,9.23
2023-04-14T07:37:31.520Z,12.23
2023-04-14T07:40:08.627Z,15.07
2023-04-14T07:42:42.718Z,10.33
2023-04-14T07:45:15.485Z,11.33
2023-04-14T07:47:50.296Z,16.53
2023-04-14T07:50:23.075Z,11.77
2023-04-14T07:52:55.911Z,7.87
2023-04-14T07:55:28.705Z,13.53
2023-04-14T07:58:04.275Z,12.83
2023-04-14T08:00:38.433Z,13.53
2023-04-14T08:03:11.480Z,10.83
2023-04-14T08:05:44.559Z,9.67
2023-04-14T08:08:17.556Z,9.00
2023-04-14T08:10:50.536Z,7.60
2023-04-14T08:13:24.744Z,6.00
2023-04-14T08:15:57.538Z,6.50
2023-04-14T08:18:33.496Z,6.50
2023-04-14T08:21:06.772Z,8.13
2023-04-14T08:23:39.555Z,6.50
2023-04-14T08:26:12.337Z,5.30
2023-04-14T08:28:47.043Z,6.63
2023-04-14T08:31:19.842Z,5.83
2023-04-14T08:33:52.928Z,5.53
2023-04-14T08:36:27.161Z,8.03
2023-04-14T08:39:01.730Z,6.40
2023-04-14T08:41:35.225Z,7.80
2023-04-14T08:44:09.449Z,7.77
2023-04-14T08:46:43.328Z,5.93
2023-04-14T08:49:25.416Z,5.87
2023-04-14T08:51:59.859Z,7.10
2023-04-14T08:54:36.697Z,6.17
2023-04-14T08:57:10.275Z,7.00
2023-04-14T08:59:44.853Z,8.83
2023-04-14T09:02:19.381Z,7.37
2023-04-14T09:04:52.545Z,6.13
2023-04-14T09:07:25.558Z,9.13
2023-04-14T09:09:58.652Z,6.03
2023-04-14T09:12:34.898Z,19.87
2023-04-14T09:15:10.026Z,6.80
2023-04-14T09:17:43.086Z,9.93
2023-04-14T09:20:37.849Z,5.73
2023-04-14T09:23:12.282Z,6.43
2023-04-14T09:25:46.149Z,6.50
2023-04-14T09:28:18.901Z,5.73
2023-04-14T09:30:53.266Z,10.00
2023-04-14T09:33:26.447Z,7.30
2023-04-14T09:35:59.249Z,7.77
2023-04-14T09:38:32.791Z,6.00
2023-04-14T09:41:06.551Z,9.63
2023-04-14T09:43:39.264Z,6.27
2023-04-14T09:46:13.630Z,5.67
2023-04-14T09:48:53.367Z,8.40
2023-04-14T09:51:28.428Z,6.73
2023-04-14T09:54:02.830Z,24.20
2023-04-14T09:56:35.811Z,7.87
2023-04-14T09:59:10.720Z,7.20
2023-04-14T10:01:46.514Z,9.17
2023-04-14T10:04:24.214Z,7.30
2023-04-14T10:06:57.711Z,13.37
2023-04-14T10:09:30.921Z,8.03
2023-04-14T10:12:09.529Z,6.67
2023-04-14T10:14:43.294Z,17.10
2023-04-14T10:17:17.896Z,6.50
2023-04-14T10:19:50.826Z,6.37
2023-04-14T10:22:23.826Z,16.60
2023-04-14T10:24:57.251Z,5.43
2023-04-14T10:27:31.815Z,7.37
2023-04-14T10:30:05.854Z,5.50
2023-04-14T10:32:42.630Z,7.47
2023-04-14T10:35:17.647Z,6.00
2023-04-14T10:37:51.332Z,6.90
2023-04-14T10:40:24.081Z,6.60
2023-04-14T10:42:57.437Z,5.47
2023-04-14T10:45:30.309Z,8.43
2023-04-14T10:48:04.598Z,6.20
2023-04-14T10:50:49.853Z,6.47
2023-04-14T10:53:25.351Z,6.47
2023-04-14T10:56:03.273Z,6.53
2023-04-14T10:58:39.201Z,6.33
2023-04-14T11:01:22.031Z,6.00
2023-04-14T11:03:56.864Z,6.63
2023-04-14T11:06:48.852Z,8.77
2023-04-14T11:09:32.055Z,7.67
2023-04-14T11:12:06.594Z,6.80
2023-04-14T11:14:39.577Z,8.23
2023-04-14T11:17:20.194Z,6.97
2023-04-14T11:19:55.928Z,7.23
2023-04-14T11:22:38.274Z,9.00
2023-04-14T11:25:12.651Z,7.40
2023-04-14T11:27:48.139Z,7.90
2023-04-14T11:30:21.924Z,6.90
2023-04-14T11:32:57.269Z,5.40
2023-04-14T11:35:31.926Z,6.63
2023-04-14T11:38:04.699Z,8.73
2023-04-14T11:40:37.453Z,7.90
2023-04-14T11:43:13.168Z,7.93
2023-04-14T11:45:47.580Z,6.93
2023-04-14T11:48:21.757Z,6.83
2023-04-14T11:51:01.080Z,8.63
2023-04-14T11:53:34.686Z,8.13
2023-04-14T11:56:08.710Z,6.97
2023-04-14T11:58:43.593Z,7.23
2023-04-14T12:01:16.429Z,5.40
2023-04-14T12:03:50.982Z,5.63
2023-04-14T12:06:27.445Z,7.00
2023-04-14T12:09:03.791Z,5.83
2023-04-14T12:11:37.324Z,6.83
2023-04-14T12:14:10.297Z,7.70
2023-04-14T12:16:46.228Z,5.83
2023-04-14T12:19:18.992Z,6.27
2023-04-14T12:21:54.177Z,6.40
2023-04-14T12:24:33.964Z,7.77
2023-04-14T12:27:10.246Z,7.57
2023-04-14T12:29:45.043Z,5.47
2023-04-14T12:32:18.659Z,6.87
2023-04-14T12:34:57.430Z,6.17
2023-04-14T12:37:31.825Z,6.57
2023-04-14T12:40:06.874Z,5.97
2023-04-14T12:42:47.156Z,6.73
2023-04-14T12:45:19.966Z,8.30
2023-04-14T12:47:53.822Z,7.63
2023-04-14T12:50:29.115Z,6.13
2023-04-14T12:53:03.577Z,6.73
2023-04-14T12:55:38.457Z,7.00
2023-04-14T12:58:11.291Z,6.10
2023-04-14T13:00:45.104Z,7.33
2023-04-14T13:03:20.877Z,7.53
2023-04-14T13:05:54.913Z,7.10
2023-04-14T13:08:29.501Z,6.27
2023-04-14T13:11:02.627Z,8.27
2023-04-14T13:13:35.485Z,6.47
2023-04-14T13:16:14.894Z,8.67
2023-04-14T13:18:51.025Z,6.53
2023-04-14T13:21:23.901Z,5.97
2023-04-14T13:23:58.463Z,7.77
2023-04-14T13:26:31.348Z,7.73
2023-04-14T13:29:05.763Z,7.00
2023-04-14T13:31:41.078Z,7.03
2023-04-14T13:34:13.953Z,8.40
2023-04-14T13:36:46.824Z,6.43
2023-04-14T13:39:21.320Z,6.67
2023-04-14T13:41:54.210Z,6.10
2023-04-14T13:44:27.595Z,7.07
2023-04-14T13:47:02.861Z,8.50
2023-04-14T13:49:35.996Z,7.00
2023-04-14T13:52:09.185Z,7.80
2023-04-14T13:54:43.369Z,9.23
2023-04-14T13:57:16.139Z,6.63
2023-04-14T13:59:49.068Z,6.17
2023-04-14T14:02:23.646Z,7.23
2023-04-14T14:04:56.581Z,6.90
2023-04-14T14:07:29.247Z,8.33
2023-04-14T14:10:03.425Z,6.83
2023-04-14T14:12:36.443Z,6.53
2023-04-14T14:15:10.077Z,6.13
2023-04-14T14:17:42.845Z,4.33
2023-04-14T14:20:15.668Z,7.93
2023-04-14T14:22:48.561Z,6.80
2023-04-14T14:25:22.735Z,5.87
2023-04-14T14:27:55.520Z,6.13
2023-04-14T14:30:30.767Z,6.03
2023-04-14T14:33:04.250Z,5.93
2023-04-14T14:35:37.330Z,5.70
2023-04-14T14:38:10.476Z,5.83
2023-04-14T14:40:45.962Z,7.10
2023-04-14T14:43:18.757Z,5.33
2023-04-14T14:45:51.698Z,6.90
2023-04-14T14:48:24.937Z,5.70
2023-04-14T14:51:00.015Z,4.90
2023-04-14T14:53:32.869Z,5.03
2023-04-14T14:56:10.266Z,5.60
2023-04-14T14:58:43.387Z,6.13
2023-04-14T15:01:16.241Z,5.67
2023-04-14T15:03:49.272Z,6.03
2023-04-14T15:06:22.266Z,5.37
2023-04-14T15:08:55.057Z,5.20
2023-04-14T15:11:29.637Z,5.40
2023-04-14T15:14:03.434Z,5.50
2023-04-14T15:16:37.099Z,6.40
2023-04-14T15:19:09.818Z,5.10
2023-04-14T15:21:45.257Z,5.40
2023-04-14T15:24:18.100Z,6.03
2023-04-14T15:26:52.267Z,5.97
2023-04-14T15:29:27.723Z,5.83
2023-04-14T15:32:01.112Z,7.43
2023-04-14T15:34:33.916Z,6.23
2023-04-14T15:37:06.735Z,7.13
2023-04-14T15:39:39.464Z,7.33
2023-04-14T15:42:13.953Z,5.27
2023-04-14T15:44:46.908Z,5.43
2023-04-14T15:47:19.629Z,6.03
2023-04-14T15:50:10.074Z,5.30
2023-04-14T15:52:43.383Z,4.97
2023-04-14T15:55:18.162Z,5.50
2023-04-14T15:57:52.474Z,6.00
2023-04-14T16:00:26.035Z,5.50
2023-04-14T16:02:59.147Z,6.37
2023-04-14T16:05:32.059Z,5.57
2023-04-14T16:08:05.146Z,5.70
2023-04-14T16:10:39.859Z,5.93
2023-04-14T16:13:14.889Z,5.60
2023-04-14T16:15:47.797Z,6.33
2023-04-14T16:18:22.772Z,5.87
2023-04-14T16:20:55.518Z,5.33
2023-04-14T16:23:28.696Z,5.13
2023-04-14T16:26:01.549Z,5.90
2023-04-14T16:28:35.932Z,6.90
2023-04-14T16:31:09.227Z,7.43
2023-04-14T16:33:42.072Z,5.37
2023-04-14T16:36:14.899Z,5.83
2023-04-14T16:38:49.082Z,5.67
2023-04-14T16:41:22.644Z,6.30
2023-04-14T16:43:56.959Z,7.17
2023-04-14T16:46:29.899Z,5.73
2023-04-14T16:49:02.954Z,6.43
2023-04-14T16:51:35.780Z,6.13
2023-04-14T16:54:08.697Z,6.40
2023-04-14T16:56:41.608Z,6.23
2023-04-14T16:59:16.076Z,6.10
2023-04-14T17:01:48.955Z,5.93
2023-04-14T17:04:22.129Z,4.93
2023-04-14T17:06:55.146Z,5.20
2023-04-14T17:09:27.971Z,5.27
2023-04-14T17:12:01.521Z,5.30
2023-04-14T17:14:43.456Z,5.63
2023-04-14T17:17:17.678Z,5.57
2023-04-14T17:19:55.064Z,5.20
2023-04-14T17:22:28.627Z,5.50
2023-04-14T17:25:01.579Z,6.17
2023-04-14T17:27:34.839Z,4.83
2023-04-14T17:30:11.607Z,5.20
2023-04-14T17:32:45.660Z,5.37
2023-04-14T17:35:18.679Z,5.43
2023-04-14T17:37:53.653Z,6.87
2023-04-14T17:40:30.291Z,5.77
2023-04-14T17:43:04.357Z,7.07
2023-04-14T17:45:40.233Z,6.50
2023-04-14T17:48:12.958Z,5.70
2023-04-14T17:50:49.050Z,6.40
2023-04-14T17:53:22.050Z,6.03
2023-04-14T17:55:55.120Z,6.47
2023-04-14T17:58:28.150Z,5.93
2023-04-14T18:01:02.468Z,6.60
2023-04-14T18:03:35.468Z,5.67
2023-04-14T18:06:09.290Z,6.53
2023-04-14T18:08:42.350Z,6.50
2023-04-14T18:11:15.162Z,6.53
2023-04-14T18:13:50.645Z,6.53
2023-04-14T18:16:25.100Z,6.70
2023-04-14T18:18:58.015Z,6.30
2023-04-14T18:21:32.439Z,6.50
2023-04-14T18:26:41.787Z,6.70
2023-04-14T18:29:17.501Z,6.50
2023-04-14T18:31:52.177Z,6.60
2023-04-14T18:34:24.913Z,7.03
2023-04-14T18:36:57.712Z,7.70
2023-04-14T18:39:33.514Z,6.93
2023-04-14T18:42:06.379Z,7.17
2023-04-14T18:44:41.231Z,8.23
2023-04-14T18:47:15.835Z,7.23
2023-04-14T18:49:48.723Z,7.67
2023-04-14T18:52:23.331Z,8.80
2023-04-14T18:54:56.202Z,7.93
2023-04-14T18:57:30.719Z,8.27
2023-04-14T19:00:07.048Z,9.37
2023-04-14T19:02:41.369Z,9.70
2023-04-14T19:05:15.541Z,9.90
2023-04-14T19:07:48.400Z,9.23
2023-04-14T19:10:21.145Z,8.17
2023-04-14T19:12:53.998Z,8.30
2023-04-14T19:15:27.755Z,9.40
2023-04-14T19:18:03.719Z,9.80
2023-04-14T19:20:36.995Z,10.70
2023-04-14T19:23:09.980Z,9.60
2023-04-14T19:25:42.825Z,11.53
2023-04-14T19:28:17.954Z,9.07
2023-04-14T19:30:50.950Z,10.40
2023-04-14T19:33:26.756Z,9.10
2023-04-14T19:35:59.654Z,10.77
2023-04-14T19:38:33.259Z,10.57
2023-04-14T19:41:06.112Z,9.40
2023-04-14T19:43:38.871Z,11.87
2023-04-14T19:46:13.186Z,11.33
2023-04-14T19:48:47.507Z,10.73
2023-04-14T19:51:22.901Z,11.60
2023-04-14T19:53:55.958Z,12.57
2023-04-14T19:56:29.613Z,13.97
2023-04-14T19:59:02.711Z,12.47
2023-04-14T20:01:35.872Z,14.93
2023-04-14T20:04:17.408Z,13.90
2023-04-14T20:06:50.494Z,12.33
2023-04-14T20:09:23.254Z,12.73
2023-04-14T20:11:55.991Z,11.90
2023-04-14T20:14:32.018Z,12.30
2023-04-14T20:17:04.842Z,13.30
2023-04-14T20:19:39.357Z,11.57
2023-04-14T20:22:12.553Z,12.57
2023-04-14T20:24:46.412Z,13.53
2023-04-14T20:27:23.727Z,15.00
2023-04-14T20:29:56.591Z,16.53
2023-04-14T20:32:29.402Z,17.67
2023-04-14T20:35:03.647Z,18.17
2023-04-14T20:37:36.704Z,19.23
2023-04-14T20:40:09.667Z,17.67
2023-04-14T20:42:42.445Z,17.47
2023-04-14T20:45:15.462Z,18.73
2023-04-14T20:47:48.568Z,17.67
2023-04-14T20:50:23.152Z,18.10
2023-04-14T20:52:56.406Z,16.37
2023-04-14T20:55:29.269Z,16.93
2023-04-14T20:58:02.025Z,13.37
2023-04-14T21:00:35.657Z,13.17
2023-04-14T21:03:09.665Z,15.47
2023-04-14T21:05:43.881Z,14.23
2023-04-14T21:08:16.598Z,15.20
2023-04-14T21:11:14.492Z,13.13
2023-04-14T21:15:29.877Z,14.47
2023-04-14T21:16:36.462Z,14.73
2023-04-14T21:19:09.991Z,15.40
2023-04-14T21:21:44.334Z,15.10
2023-04-14T21:24:20.127Z,18.17
2023-04-14T21:26:56.313Z,18.97
2023-04-14T21:29:29.367Z,17.33
2023-04-14T21:32:04.336Z,18.43
2023-04-14T21:34:37.351Z,22.60
2023-04-14T21:37:11.572Z,21.07
2023-04-14T21:39:44.493Z,20.87
2023-04-14T21:42:17.623Z,20.50
2023-04-14T21:44:52.927Z,19.40
2023-04-14T21:47:25.820Z,22.37
2023-04-14T21:49:58.620Z,21.37
2023-04-14T21:52:32.866Z,20.77
2023-04-14T21:55:06.811Z,20.90
2023-04-14T21:57:45.652Z,19.83
2023-04-14T22:00:22.294Z,24.27
2023-04-14T22:02:55.316Z,20.47
2023-04-14T22:05:28.473Z,21.60
2023-04-14T22:08:02.604Z,20.87
2023-04-14T22:10:43.263Z,19.70
2023-04-14T22:13:16.070Z,21.47
2023-04-14T22:15:50.299Z,19.93
2023-04-14T22:18:24.939Z,22.67
2023-04-14T22:20:57.702Z,20.77
2023-04-14T22:23:34.912Z,20.70
2023-04-14T22:26:09.964Z,21.23
2023-04-14T22:28:42.604Z,24.17
2023-04-14T22:31:15.276Z,22.97
2023-04-14T22:33:48.060Z,25.57
2023-04-14T22:36:21.505Z,22.30
2023-04-14T22:38:55.630Z,24.90
2023-04-14T22:41:28.363Z,22.80
2023-04-14T22:44:01.725Z,25.30
2023-04-14T22:46:34.642Z,22.13
2023-04-14T22:49:07.637Z,24.23
2023-04-14T22:51:40.443Z,22.17
2023-04-14T22:54:15.374Z,23.47
2023-04-14T22:56:50.571Z,23.60
2023-04-14T22:59:24.207Z,23.23
2023-04-14T23:01:58.392Z,24.63
2023-04-14T23:04:34.051Z,24.33
2023-04-14T23:07:06.841Z,24.40
2023-04-14T23:09:41.289Z,25.33
2023-04-14T23:12:14.086Z,29.47
2023-04-14T23:14:46.955Z,24.83
2023-04-14T23:17:22.727Z,26.83
2023-04-14T23:19:55.514Z,26.40
2023-04-14T23:22:32.386Z,26.03
2023-04-14T23:25:12.348Z,26.70
2023-04-14T23:27:45.184Z,24.87
2023-04-14T23:30:17.937Z,32.03
2023-04-14T23:32:51.381Z,25.93
2023-04-14T23:35:24.448Z,28.43
2023-04-14T23:38:02.082Z,25.30
2023-04-14T23:40:36.640Z,31.47
2023-04-14T23:43:09.616Z,26.77
2023-04-14T23:45:42.568Z,30.00
2023-04-14T23:48:15.449Z,31.33
2023-04-14T23:51:02.265Z,30.37
2023-04-14T23:53:41.840Z,30.13
2023-04-14T23:56:16.355Z,28.17
2023-04-14T23:58:49.235Z,29.50
